Aegean Tiffany — SVAE9 — position and weather

sailwx.info

Track history (hours):
 
Tides and Currents Weather Stations Pressure Air Temp Water Temp Dewpoint Dewpoint Depression Visibility Wind Speed Wind Dir Waves Ship Positions

Aegean Tiffany

Last reported at 2016-Aug-21 02:21 UTC. Time now 2016-Aug-24 12:00 UTC.
Position N 37°55' E 023°00'.

Length 80 m; draft 5.7 m.

Type: Tanker. MMSI: 240870000.

Date/timePositionNaut miles runAvg speedWind from/ knotsBaromVisibWave heightAir tempDewpointWater temp
2016-Aug-21 02:21N 37°55' E 023°00'5 6.0
2016-Aug-21 01:33N 37°55' E 023°06'8 7.5
2016-Aug-21 00:33N 37°56' E 023°16'8 7.6
2016-Aug-20 23:33N 37°58' E 023°25'6 5.8
2016-Aug-20 22:33N 38°02' E 023°30'0 0.5
2016-Aug-20 21:33N 38°02' E 023°31'0 0.0
2016-Aug-20 20:33N 38°02' E 023°31'0 0.0
2016-Aug-20 19:33N 38°02' E 023°31'0 0.0
2016-Aug-20 18:33N 38°02' E 023°31'0 0.0
2016-Aug-20 17:33N 38°02' E 023°31'0 0.0
2016-Aug-20 16:33N 38°02' E 023°31'0 0.0
2016-Aug-20 15:33N 38°02' E 023°31'0 0.0
2016-Aug-20 14:33N 38°02' E 023°31'1 0.7
2016-Aug-20 13:33N 38°02' E 023°31'0 0.5
2016-Aug-20 12:33N 38°02' E 023°32'3 3.1
2016-Aug-20 11:33N 38°02' E 023°36'0 0.0
2016-Aug-20 10:33N 38°02' E 023°36'0 0.0
2016-Aug-20 09:33N 38°02' E 023°36'0 0.0
2016-Aug-20 08:33N 38°02' E 023°36'0 0.0
2016-Aug-20 07:34N 38°02' E 023°36'0 0.0
2016-Aug-20 06:33N 38°02' E 023°36'3 3.1
2016-Aug-20 05:33N 38°02' E 023°32'0 0.0
2016-Aug-20 04:33N 38°02' E 023°32'0 0.0
2016-Aug-20 03:33N 38°02' E 023°32'0 0.5
2016-Aug-20 02:33N 38°02' E 023°31'6 6.2
2016-Aug-20 01:33N 37°58' E 023°25'8 8.4
2016-Aug-20 00:33N 37°56' E 023°15'8 8.4
2016-Aug-19 23:33N 37°54' E 023°04'12 6.1
2016-Aug-19 21:30N 38°00' E 022°51'16 8.4
2016-Aug-19 19:33N 38°09' E 022°33'  
2016-Aug-17 01:30N 38°09' E 022°35'24 7.5
2016-Aug-16 22:15N 37°55' E 023°00'4 5.5
2016-Aug-16 21:33N 37°55' E 023°05'8 7.9
2016-Aug-16 20:33N 37°56' E 023°15'8 7.6
2016-Aug-16 19:33N 37°57' E 023°24'6 6.1
2016-Aug-16 18:34N 38°01' E 023°30'2 0.0
2016-Aug-15 03:18N 38°02' E 023°32'1 1.4
2016-Aug-15 02:33N 38°02' E 023°31'0 0.0
2016-Aug-15 01:33N 38°02' E 023°31'0 0.0
2016-Aug-15 00:33N 38°02' E 023°31'0 0.0
2016-Aug-14 23:33N 38°02' E 023°31'0 0.0
2016-Aug-14 22:33N 38°02' E 023°31'0 0.0
2016-Aug-14 21:33N 38°02' E 023°31'0 0.0
2016-Aug-14 20:33N 38°02' E 023°31'0 0.0
2016-Aug-14 19:33N 38°02' E 023°31'0 0.0
2016-Aug-14 18:33N 38°02' E 023°31'0 0.0
2016-Aug-14 17:33N 38°02' E 023°31'2 2.5
2016-Aug-14 16:33N 38°02' E 023°34'1 1.4
2016-Aug-14 15:33N 38°02' E 023°36'0 0.0
2016-Aug-14 14:33N 38°02' E 023°36'0 0.0
2016-Aug-14 13:33N 38°02' E 023°36'0 0.0
2016-Aug-14 12:33N 38°02' E 023°36'5 4.7
2016-Aug-14 11:33N 37°57' E 023°33'3 2.8
2016-Aug-14 10:33N 37°57' E 023°37'0 0.0
2016-Aug-14 09:33N 37°57' E 023°37'0 0.0
2016-Aug-14 08:33N 37°57' E 023°37'0 0.0
2016-Aug-14 07:33N 37°57' E 023°37'5 5.1
2016-Aug-14 06:33N 38°01' E 023°33'4 2.2
2016-Aug-14 04:33N 38°00' E 023°27'6 6.1
2016-Aug-14 03:33N 37°57' E 023°21'8 8.1
2016-Aug-14 02:33N 37°55' E 023°10'8 7.7
2016-Aug-14 01:33N 37°55' E 023°01'14 6.6
2016-Aug-13 23:28N 38°03' E 022°46'22 7.4
2016-Aug-13 20:33N 38°13' E 022°22'  
Track history (hours):
 
Tides and Currents Weather Stations Pressure Air Temp Water Temp Dewpoint Dewpoint Depression Visibility Wind Speed Wind Dir Waves Ship Positions

Aegean Tiffany

Last reported at 2016-Aug-21 02:21 UTC. Time now 2016-Aug-24 12:00 UTC.
Position N 37°55' E 023°00'.

Length 80 m; draft 5.7 m.

Type: Tanker. MMSI: 240870000.

Date/timePositionNaut miles runAvg speedWind from/ knotsBaromVisibWave heightAir tempDewpointWater temp
2016-Aug-21 02:21N 37°55' E 023°00'5 6.0
2016-Aug-21 01:33N 37°55' E 023°06'8 7.5
2016-Aug-21 00:33N 37°56' E 023°16'8 7.6
2016-Aug-20 23:33N 37°58' E 023°25'6 5.8
2016-Aug-20 22:33N 38°02' E 023°30'0 0.5
2016-Aug-20 21:33N 38°02' E 023°31'0 0.0
2016-Aug-20 20:33N 38°02' E 023°31'0 0.0
2016-Aug-20 19:33N 38°02' E 023°31'0 0.0
2016-Aug-20 18:33N 38°02' E 023°31'0 0.0
2016-Aug-20 17:33N 38°02' E 023°31'0 0.0
2016-Aug-20 16:33N 38°02' E 023°31'0 0.0
2016-Aug-20 15:33N 38°02' E 023°31'0 0.0
2016-Aug-20 14:33N 38°02' E 023°31'1 0.7
2016-Aug-20 13:33N 38°02' E 023°31'0 0.5
2016-Aug-20 12:33N 38°02' E 023°32'3 3.1
2016-Aug-20 11:33N 38°02' E 023°36'0 0.0
2016-Aug-20 10:33N 38°02' E 023°36'0 0.0
2016-Aug-20 09:33N 38°02' E 023°36'0 0.0
2016-Aug-20 08:33N 38°02' E 023°36'0 0.0
2016-Aug-20 07:34N 38°02' E 023°36'0 0.0
2016-Aug-20 06:33N 38°02' E 023°36'3 3.1
2016-Aug-20 05:33N 38°02' E 023°32'0 0.0
2016-Aug-20 04:33N 38°02' E 023°32'0 0.0
2016-Aug-20 03:33N 38°02' E 023°32'0 0.5
2016-Aug-20 02:33N 38°02' E 023°31'6 6.2
2016-Aug-20 01:33N 37°58' E 023°25'8 8.4
2016-Aug-20 00:33N 37°56' E 023°15'8 8.4
2016-Aug-19 23:33N 37°54' E 023°04'12 6.1
2016-Aug-19 21:30N 38°00' E 022°51'16 8.4
2016-Aug-19 19:33N 38°09' E 022°33'  
2016-Aug-17 01:30N 38°09' E 022°35'24 7.5
2016-Aug-16 22:15N 37°55' E 023°00'4 5.5
2016-Aug-16 21:33N 37°55' E 023°05'8 7.9
2016-Aug-16 20:33N 37°56' E 023°15'8 7.6
2016-Aug-16 19:33N 37°57' E 023°24'6 6.1
2016-Aug-16 18:34N 38°01' E 023°30'2 0.0
2016-Aug-15 03:18N 38°02' E 023°32'1 1.4
2016-Aug-15 02:33N 38°02' E 023°31'0 0.0
2016-Aug-15 01:33N 38°02' E 023°31'0 0.0
2016-Aug-15 00:33N 38°02' E 023°31'0 0.0
2016-Aug-14 23:33N 38°02' E 023°31'0 0.0
2016-Aug-14 22:33N 38°02' E 023°31'0 0.0
2016-Aug-14 21:33N 38°02' E 023°31'0 0.0
2016-Aug-14 20:33N 38°02' E 023°31'0 0.0
2016-Aug-14 19:33N 38°02' E 023°31'0 0.0
2016-Aug-14 18:33N 38°02' E 023°31'0 0.0
2016-Aug-14 17:33N 38°02' E 023°31'2 2.5
2016-Aug-14 16:33N 38°02' E 023°34'1 1.4
2016-Aug-14 15:33N 38°02' E 023°36'0 0.0
2016-Aug-14 14:33N 38°02' E 023°36'0 0.0
2016-Aug-14 13:33N 38°02' E 023°36'0 0.0
2016-Aug-14 12:33N 38°02' E 023°36'5 4.7
2016-Aug-14 11:33N 37°57' E 023°33'3 2.8
2016-Aug-14 10:33N 37°57' E 023°37'0 0.0
2016-Aug-14 09:33N 37°57' E 023°37'0 0.0
2016-Aug-14 08:33N 37°57' E 023°37'0 0.0
2016-Aug-14 07:33N 37°57' E 023°37'5 5.1
2016-Aug-14 06:33N 38°01' E 023°33'4 2.2
2016-Aug-14 04:33N 38°00' E 023°27'6 6.1
2016-Aug-14 03:33N 37°57' E 023°21'8 8.1
2016-Aug-14 02:33N 37°55' E 023°10'8 7.7
2016-Aug-14 01:33N 37°55' E 023°01'14 6.6
2016-Aug-13 23:28N 38°03' E 022°46'22 7.4
2016-Aug-13 20:33N 38°13' E 022°22'  

Dump ship's entire track history